Terminal Aerodrome Forecast
Issued by NWS

Home | Current Version | Previous Version | Text Only | Print | Product List | Glossary On
Versions: 1 2 3 4 5 6 7 8 9 10 11 12 13 14 15 16 17 18
000
FTAK31 PAFA 010539
TAFAQT
TAF
PAQT 010539Z 0106/0206 05006KT 6SM -SHSN BR SCT007 OVC014
      TEMPO 0106/0109 3SM -SN BR
     FM010900 05006KT 4SM -SHSN BR SCT005 OVC007
     FM012100 04005KT P6SM OVC010=

USA.gov is the U.S. government's official web portal to all federal, state and local government web resources and services.